createdAt,value
2022-10-10T00:02:01.811Z,4.38
2022-10-10T00:05:04.317Z,3.08
2022-10-10T00:08:08.052Z,2.75
2022-10-10T00:11:11.389Z,2.42
2022-10-10T00:14:14.003Z,2.80
2022-10-10T00:17:16.133Z,3.13
2022-10-10T00:20:20.403Z,3.90
2022-10-10T00:23:22.764Z,4.05
2022-10-10T00:26:24.820Z,4.38
2022-10-10T00:29:26.900Z,5.25
2022-10-10T00:32:28.954Z,4.18
2022-10-10T00:35:31.123Z,5.13
2022-10-10T00:38:33.467Z,3.33
2022-10-10T00:41:35.495Z,3.60
2022-10-10T00:44:37.695Z,4.53
2022-10-10T00:47:40.237Z,6.88
2022-10-10T00:51:11.288Z,6.05
2022-10-10T00:54:16.577Z,6.40
2022-10-10T00:57:18.790Z,7.18
2022-10-10T01:00:21.190Z,5.70
2022-10-10T01:03:23.778Z,6.05
2022-10-10T01:06:26.158Z,5.82
2022-10-10T01:09:29.638Z,6.25
2022-10-10T01:12:53.183Z,6.73
2022-10-10T01:16:29.504Z,5.40
2022-10-10T01:20:05.678Z,6.65
2022-10-10T01:23:32.211Z,5.03
2022-10-10T01:26:59.443Z,5.55
2022-10-10T01:30:23.427Z,6.40
2022-10-10T01:33:35.669Z,6.03
2022-10-10T01:36:43.305Z,4.10
2022-10-10T01:39:57.276Z,4.00
2022-10-10T01:43:05.748Z,4.30
2022-10-10T01:46:15.846Z,4.55
2022-10-10T01:49:18.246Z,3.03
2022-10-10T01:52:35.132Z,2.85
2022-10-10T01:55:46.350Z,2.95
2022-10-10T01:58:51.768Z,2.47
2022-10-10T02:02:35.273Z,3.47
2022-10-10T02:05:44.717Z,4.00
2022-10-10T02:08:54.770Z,3.15
2022-10-10T02:11:59.276Z,3.40
2022-10-10T02:18:19.053Z,3.45
2022-10-10T02:21:22.660Z,2.80
2022-10-10T02:24:25.582Z,3.45
2022-10-10T02:27:30.775Z,4.10
2022-10-10T02:30:38.084Z,2.25
2022-10-10T02:33:47.276Z,2.67
2022-10-10T02:36:54.485Z,3.72
2022-10-10T02:40:01.614Z,2.95
2022-10-10T02:43:07.487Z,2.47
2022-10-10T02:46:13.853Z,2.67
2022-10-10T02:49:27.542Z,3.67
2022-10-10T02:52:29.883Z,2.67
2022-10-10T02:55:33.411Z,2.65
2022-10-10T02:58:35.681Z,3.33
2022-10-10T03:01:38.036Z,3.00
2022-10-10T03:04:40.292Z,3.45
2022-10-10T03:07:42.461Z,3.42
2022-10-10T03:11:03.486Z,3.28
2022-10-10T03:14:05.669Z,2.58
2022-10-10T03:17:07.981Z,3.33
2022-10-10T03:20:11.634Z,3.22
2022-10-10T03:23:14.292Z,3.55
2022-10-10T03:26:16.411Z,3.05
2022-10-10T03:29:18.599Z,3.35
2022-10-10T03:32:21.058Z,3.70
2022-10-10T03:35:23.357Z,3.53
2022-10-10T03:38:25.704Z,3.08
2022-10-10T03:41:50.459Z,3.13
2022-10-10T03:47:55.196Z,3.53
2022-10-10T03:50:57.380Z,3.20
2022-10-10T03:53:59.461Z,2.72
2022-10-10T03:57:01.635Z,2.83
2022-10-10T04:00:05.845Z,3.88
2022-10-10T04:03:08.321Z,3.17
2022-10-10T04:06:10.808Z,3.70
2022-10-10T04:09:12.826Z,2.85
2022-10-10T04:12:14.965Z,3.03
2022-10-10T04:15:46.164Z,3.17
2022-10-10T04:18:52.065Z,3.38
2022-10-10T04:21:54.322Z,3.28
2022-10-10T04:24:56.545Z,3.33
2022-10-10T04:28:01.205Z,4.15
2022-10-10T04:31:03.711Z,3.40
2022-10-10T04:34:05.803Z,2.83
2022-10-10T04:37:07.916Z,2.53
2022-10-10T04:40:10.774Z,2.70
2022-10-10T04:43:13.858Z,4.57
2022-10-10T04:46:15.911Z,3.15
2022-10-10T04:49:18.192Z,3.95
2022-10-10T04:52:20.385Z,3.20
2022-10-10T04:55:25.467Z,3.38
2022-10-10T04:58:27.702Z,3.03
2022-10-10T05:01:30.243Z,3.22
2022-10-10T05:04:32.647Z,4.18
2022-10-10T05:07:35.304Z,3.83
2022-10-10T05:10:41.134Z,2.88
2022-10-10T05:13:43.375Z,4.60
2022-10-10T05:16:47.018Z,4.75
2022-10-10T05:19:49.216Z,3.90
2022-10-10T05:22:51.551Z,3.95
2022-10-10T05:25:53.735Z,3.97
2022-10-10T05:29:10.536Z,3.20
2022-10-10T05:32:12.605Z,3.35
2022-10-10T05:35:14.679Z,3.47
2022-10-10T05:38:16.813Z,3.53
2022-10-10T05:41:18.877Z,2.72
2022-10-10T05:44:21.747Z,3.47
2022-10-10T05:47:27.867Z,3.05
2022-10-10T05:50:34.755Z,3.55
2022-10-10T05:53:37.021Z,3.75
2022-10-10T05:56:39.207Z,3.40
2022-10-10T05:59:41.446Z,3.47
2022-10-10T06:02:43.824Z,2.40
2022-10-10T06:05:55.068Z,3.38
2022-10-10T06:08:57.461Z,2.92
2022-10-10T06:11:59.534Z,2.97
2022-10-10T06:15:02.541Z,2.83
2022-10-10T06:18:05.290Z,2.53
2022-10-10T06:21:08.591Z,2.28
2022-10-10T06:24:11.739Z,2.58
2022-10-10T06:27:14.153Z,2.03
2022-10-10T06:30:17.180Z,3.28
2022-10-10T06:33:19.950Z,3.00
2022-10-10T06:36:22.236Z,2.58
2022-10-10T06:39:24.400Z,2.70
2022-10-10T06:42:26.635Z,2.67
2022-10-10T06:45:28.798Z,3.35
2022-10-10T06:48:32.409Z,3.58
2022-10-10T06:51:34.587Z,2.80
2022-10-10T06:54:36.809Z,3.17
2022-10-10T06:57:38.948Z,3.50
2022-10-10T07:00:41.509Z,3.72
2022-10-10T07:03:43.531Z,4.05
2022-10-10T07:06:45.747Z,5.82
2022-10-10T07:09:47.885Z,5.63
2022-10-10T07:12:51.490Z,3.70
2022-10-10T07:15:53.742Z,4.85
2022-10-10T07:18:56.981Z,4.50
2022-10-10T07:21:59.104Z,3.33
2022-10-10T07:25:01.216Z,5.80
2022-10-10T07:28:03.379Z,4.93
2022-10-10T07:31:08.605Z,3.75
2022-10-10T07:34:10.886Z,3.75
2022-10-10T07:37:12.967Z,4.15
2022-10-10T07:40:16.481Z,2.75
2022-10-10T07:43:19.547Z,2.88
2022-10-10T07:46:23.254Z,2.55
2022-10-10T07:49:25.303Z,4.75
2022-10-10T07:52:27.657Z,4.13
2022-10-10T07:55:29.682Z,4.15
2022-10-10T07:58:34.458Z,4.60
2022-10-10T08:01:36.829Z,3.20
2022-10-10T08:04:41.618Z,2.03
2022-10-10T08:07:43.994Z,3.30
2022-10-10T08:10:48.971Z,3.63
2022-10-10T08:13:51.734Z,2.85
2022-10-10T08:16:54.132Z,3.20
2022-10-10T08:19:56.703Z,2.40
2022-10-10T08:22:59.155Z,3.70
2022-10-10T08:26:03.558Z,1.90
2022-10-10T08:29:05.885Z,2.28
2022-10-10T08:32:07.919Z,3.40
2022-10-10T08:35:11.299Z,2.25
2022-10-10T08:38:14.860Z,2.53
2022-10-10T08:41:31.933Z,1.85
2022-10-10T08:44:49.410Z,1.60
2022-10-10T08:48:07.443Z,2.00
2022-10-10T08:51:17.429Z,1.88
2022-10-10T08:54:22.641Z,1.40
2022-10-10T08:57:38.775Z,2.42
2022-10-10T09:00:58.236Z,5.25
2022-10-10T09:04:05.044Z,1.10
2022-10-10T09:07:28.643Z,2.00
2022-10-10T09:11:03.381Z,1.40
2022-10-10T09:14:24.379Z,2.40
2022-10-10T09:17:26.463Z,2.30
2022-10-10T09:20:50.856Z,1.70
2022-10-10T09:24:03.316Z,2.63
2022-10-10T09:27:10.254Z,1.20
2022-10-10T09:30:19.956Z,1.95
2022-10-10T09:33:44.243Z,1.75
2022-10-10T09:36:48.434Z,1.20
2022-10-10T09:40:19.745Z,1.30
2022-10-10T09:43:22.023Z,1.42
2022-10-10T09:46:25.045Z,2.05
2022-10-10T09:49:27.396Z,2.42
2022-10-10T09:52:32.474Z,5.43
2022-10-10T09:55:39.580Z,2.15
2022-10-10T09:58:50.738Z,1.40
2022-10-10T10:02:03.748Z,1.20
2022-10-10T10:05:28.236Z,1.23
2022-10-10T10:08:36.562Z,2.88
2022-10-10T10:11:40.245Z,1.17
2022-10-10T10:14:43.700Z,2.10
2022-10-10T10:17:49.512Z,1.63
2022-10-10T10:21:14.987Z,2.08
2022-10-10T10:25:00.960Z,2.42
2022-10-10T10:28:23.578Z,2.45
2022-10-10T10:32:09.531Z,2.30
2022-10-10T10:35:32.268Z,2.88
2022-10-10T10:38:40.240Z,2.75
2022-10-10T10:42:12.939Z,2.90
2022-10-10T10:45:53.617Z,2.55
2022-10-10T10:49:00.673Z,2.85
2022-10-10T10:52:30.954Z,2.97
2022-10-10T10:56:05.074Z,1.95
2022-10-10T11:00:21.812Z,2.03
2022-10-10T11:05:16.363Z,1.90
2022-10-10T11:07:21.455Z,3.00
2022-10-10T11:10:38.476Z,2.03
2022-10-10T11:14:05.600Z,2.17
2022-10-10T11:17:37.876Z,2.50
2022-10-10T11:20:55.437Z,2.03
2022-10-10T11:24:05.106Z,4.60
2022-10-10T11:27:34.445Z,1.95
2022-10-10T11:30:43.927Z,2.08
2022-10-10T11:33:51.905Z,1.45
2022-10-10T11:37:00.673Z,1.20
2022-10-10T11:40:06.258Z,1.50
2022-10-10T11:43:15.751Z,1.92
2022-10-10T11:46:33.279Z,1.90
2022-10-10T11:50:13.214Z,1.88
2022-10-10T11:53:32.394Z,1.58
2022-10-10T11:56:44.936Z,1.30
2022-10-10T11:59:58.077Z,1.90
2022-10-10T12:03:01.019Z,1.48
2022-10-10T12:06:20.763Z,1.67
2022-10-10T12:09:34.947Z,1.70
2022-10-10T12:12:45.321Z,2.70
2022-10-10T12:15:52.177Z,1.63
2022-10-10T12:19:00.658Z,1.98
2022-10-10T12:22:05.740Z,2.05
2022-10-10T12:25:23.622Z,2.10
2022-10-10T12:28:49.863Z,3.00
2022-10-10T12:32:23.863Z,2.25
2022-10-10T12:35:34.851Z,1.65
2022-10-10T12:38:37.245Z,3.22
2022-10-10T12:41:47.044Z,3.38
2022-10-10T12:44:54.446Z,4.05
2022-10-10T12:48:05.430Z,3.30
2022-10-10T12:51:22.017Z,6.22
2022-10-10T12:54:29.304Z,3.35
2022-10-10T12:57:37.076Z,4.68
2022-10-10T13:00:45.239Z,3.20
2022-10-10T13:03:50.614Z,4.10
2022-10-10T13:06:59.118Z,3.42
2022-10-10T13:10:19.080Z,4.47
2022-10-10T13:13:21.423Z,3.67
2022-10-10T13:16:31.115Z,5.82
2022-10-10T13:19:41.593Z,4.78
2022-10-10T13:22:47.177Z,5.30
2022-10-10T13:25:49.574Z,3.35
2022-10-10T13:28:53.483Z,1.77
2022-10-10T13:32:03.819Z,4.25
2022-10-10T13:35:13.610Z,3.10
2022-10-10T13:38:18.360Z,2.65
2022-10-10T13:41:22.002Z,3.25
2022-10-10T13:44:46.319Z,2.72
2022-10-10T13:48:00.674Z,3.90
2022-10-10T13:51:10.435Z,3.00
2022-10-10T13:54:45.545Z,2.28
2022-10-10T13:57:48.076Z,2.47
2022-10-10T14:01:01.566Z,4.13
2022-10-10T14:04:13.154Z,2.80
2022-10-10T14:07:24.775Z,2.45
2022-10-10T14:10:33.706Z,2.60
2022-10-10T14:13:38.791Z,2.40
2022-10-10T14:16:41.080Z,2.00
2022-10-10T14:19:44.908Z,3.45
2022-10-10T14:22:47.200Z,2.63
2022-10-10T14:25:50.497Z,2.40
2022-10-10T14:28:53.060Z,4.47
2022-10-10T14:31:55.375Z,2.03
2022-10-10T14:34:57.773Z,1.60
2022-10-10T14:37:59.858Z,2.55
2022-10-10T14:41:02.741Z,3.05
2022-10-10T14:44:05.084Z,1.90
2022-10-10T14:50:21.246Z,1.35
2022-10-10T14:53:23.675Z,1.33
2022-10-10T14:56:25.699Z,2.38
2022-10-10T14:59:50.261Z,1.63
2022-10-10T15:02:52.840Z,2.50
2022-10-10T15:05:56.074Z,2.13
2022-10-10T15:08:58.123Z,2.42
2022-10-10T15:12:00.405Z,2.58
2022-10-10T15:15:02.900Z,1.85
2022-10-10T15:18:05.287Z,2.60
2022-10-10T15:21:12.085Z,1.02
2022-10-10T15:24:14.099Z,2.38
2022-10-10T15:27:16.198Z,2.08
2022-10-10T15:30:18.352Z,1.98
2022-10-10T15:33:20.681Z,3.85
2022-10-10T15:36:23.138Z,1.52
2022-10-10T15:39:25.224Z,1.48
2022-10-10T15:42:28.359Z,1.42
2022-10-10T15:45:54.444Z,1.48
2022-10-10T15:48:54.512Z,2.15
2022-10-10T15:51:56.632Z,1.67
2022-10-10T15:54:58.631Z,1.35
2022-10-10T15:58:03.506Z,1.23
2022-10-10T16:01:13.591Z,1.50
2022-10-10T16:04:15.711Z,1.17
2022-10-10T16:07:28.329Z,1.50
2022-10-10T16:10:37.583Z,1.27
2022-10-10T16:13:41.142Z,1.67
2022-10-10T16:16:43.224Z,1.45
2022-10-10T16:19:45.269Z,2.60
2022-10-10T16:22:47.583Z,1.35
2022-10-10T16:25:49.694Z,1.02
2022-10-10T16:28:52.491Z,1.27
2022-10-10T16:31:54.618Z,1.08
2022-10-10T16:34:56.790Z,1.98
2022-10-10T16:38:00.452Z,1.75
2022-10-10T16:41:09.134Z,1.33
2022-10-10T16:44:15.900Z,1.15
2022-10-10T16:47:18.161Z,1.40
2022-10-10T16:50:20.214Z,1.23
2022-10-10T16:53:22.592Z,2.38
2022-10-10T16:56:24.716Z,1.75
2022-10-10T16:59:27.964Z,2.45
2022-10-10T17:02:30.001Z,1.38
2022-10-10T17:05:32.232Z,1.70
2022-10-10T17:08:35.678Z,1.88
2022-10-10T17:11:37.992Z,1.45
2022-10-10T17:14:40.125Z,1.30
2022-10-10T17:17:44.111Z,1.73
2022-10-10T17:20:47.587Z,1.60
2022-10-10T17:23:51.825Z,2.15
2022-10-10T17:26:54.070Z,1.58
2022-10-10T17:29:56.149Z,2.00
2022-10-10T17:32:58.132Z,1.67
2022-10-10T17:36:01.033Z,1.10
2022-10-10T17:39:03.825Z,2.22
2022-10-10T17:42:05.947Z,1.90
2022-10-10T17:45:08.781Z,1.73
2022-10-10T17:48:10.800Z,1.42
2022-10-10T17:51:15.538Z,0.93
2022-10-10T17:54:18.544Z,1.15
2022-10-10T17:57:20.749Z,1.13
2022-10-10T18:00:23.139Z,1.15
2022-10-10T18:03:25.194Z,1.02
2022-10-10T18:06:29.274Z,1.52
2022-10-10T18:16:15.340Z,3.72
2022-10-10T18:19:18.850Z,3.10
2022-10-10T18:22:21.027Z,2.45
2022-10-10T18:25:25.235Z,1.10
2022-10-10T18:28:30.607Z,2.17
2022-10-10T18:31:35.137Z,1.80
2022-10-10T18:34:37.414Z,1.20
2022-10-10T18:37:39.541Z,1.95
2022-10-10T18:40:41.685Z,2.13
2022-10-10T18:43:44.969Z,2.85
2022-10-10T18:46:49.744Z,2.63
2022-10-10T18:49:54.518Z,3.40
2022-10-10T18:52:57.988Z,2.35
2022-10-10T18:56:00.862Z,2.40
2022-10-10T18:59:05.206Z,2.92
2022-10-10T19:02:08.014Z,3.35
2022-10-10T19:05:10.303Z,3.00
2022-10-10T19:08:14.082Z,3.58
2022-10-10T19:11:24.637Z,2.85
2022-10-10T19:14:27.685Z,2.88
2022-10-10T19:17:32.135Z,3.25
2022-10-10T19:20:34.518Z,3.50
2022-10-10T19:23:37.615Z,3.85
2022-10-10T19:26:39.740Z,4.80
2022-10-10T19:29:41.852Z,5.25
2022-10-10T19:32:44.309Z,5.13
2022-10-10T19:35:49.798Z,5.53
2022-10-10T19:38:55.047Z,5.47
2022-10-10T19:41:57.187Z,4.72
2022-10-10T19:44:59.626Z,6.15
2022-10-10T19:48:01.951Z,6.13
2022-10-10T19:51:06.631Z,7.20
2022-10-10T19:54:10.535Z,7.20
2022-10-10T19:57:12.640Z,6.13
2022-10-10T20:00:15.278Z,5.28
2022-10-10T20:03:17.338Z,6.32
2022-10-10T20:06:22.424Z,5.53
2022-10-10T20:09:25.681Z,7.50
2022-10-10T20:12:27.808Z,8.07
2022-10-10T20:15:29.870Z,7.60
2022-10-10T20:18:34.421Z,7.43
2022-10-10T20:21:36.983Z,7.38
2022-10-10T20:24:39.530Z,7.38
2022-10-10T20:27:41.666Z,7.45
2022-10-10T20:30:48.396Z,7.68
2022-10-10T20:33:52.481Z,8.25
2022-10-10T20:36:55.261Z,8.48
2022-10-10T20:39:57.509Z,7.97
2022-10-10T20:42:59.583Z,9.77
2022-10-10T20:46:10.039Z,7.93
2022-10-10T20:49:18.610Z,9.88
2022-10-10T20:52:24.044Z,10.15
2022-10-10T20:55:26.324Z,8.88
2022-10-10T20:58:29.206Z,10.80
2022-10-10T21:01:31.729Z,10.02
2022-10-10T21:04:33.936Z,11.48
2022-10-10T21:07:35.980Z,12.63
2022-10-10T21:10:41.216Z,13.50
2022-10-10T21:13:46.073Z,12.88
2022-10-10T21:16:50.575Z,10.65
2022-10-10T21:19:52.578Z,10.80
2022-10-10T21:22:55.874Z,13.63
2022-10-10T21:25:58.106Z,21.47
2022-10-10T21:29:03.866Z,9.75
2022-10-10T21:32:07.865Z,9.45
2022-10-10T21:35:10.046Z,7.75
2022-10-10T21:38:12.343Z,8.63
2022-10-10T21:41:19.464Z,8.00
2022-10-10T21:44:22.111Z,7.30
2022-10-10T21:47:24.240Z,7.10
2022-10-10T21:50:27.957Z,6.43
2022-10-10T21:53:30.435Z,6.35
2022-10-10T21:56:33.833Z,7.22
2022-10-10T21:59:36.118Z,5.30
2022-10-10T22:02:42.476Z,4.10
2022-10-10T22:05:45.163Z,5.05
2022-10-10T22:08:48.557Z,4.43
2022-10-10T22:11:50.962Z,4.90
2022-10-10T22:14:53.163Z,3.05
2022-10-10T22:17:55.877Z,3.78
2022-10-10T22:20:57.989Z,3.63
2022-10-10T22:24:02.323Z,3.67
2022-10-10T22:27:04.423Z,3.88
2022-10-10T22:30:08.118Z,7.65
2022-10-10T22:33:10.589Z,4.30
2022-10-10T22:36:13.697Z,4.05
2022-10-10T22:39:15.957Z,4.20
2022-10-10T22:42:18.299Z,4.30
2022-10-10T22:45:27.520Z,4.68
2022-10-10T22:48:29.919Z,5.25
2022-10-10T22:51:32.163Z,4.13
2022-10-10T22:54:37.805Z,4.05
2022-10-10T22:57:40.076Z,4.32
2022-10-10T23:00:42.486Z,4.50
2022-10-10T23:03:45.051Z,5.07
2022-10-10T23:06:47.252Z,4.55
2022-10-10T23:09:49.395Z,5.13
2022-10-10T23:12:51.786Z,4.70
2022-10-10T23:15:54.426Z,5.65
2022-10-10T23:18:56.791Z,4.22
2022-10-10T23:21:59.371Z,4.65
2022-10-10T23:25:01.486Z,4.22
2022-10-10T23:28:03.624Z,6.32
2022-10-10T23:31:08.757Z,6.80
2022-10-10T23:34:11.330Z,9.50
2022-10-10T23:37:14.451Z,5.35
2022-10-10T23:40:16.556Z,4.30
2022-10-10T23:43:18.622Z,4.82
2022-10-10T23:46:21.028Z,6.47
2022-10-10T23:49:23.359Z,7.85
2022-10-10T23:52:28.535Z,8.40
2022-10-10T23:55:30.969Z,9.02
2022-10-10T23:58:33.229Z,9.25
